Time;durP1;ratioP1;P1;durP2;ratioP2;P2;SDS_P1;SDS_P2;PMS_P1;PMS_P2;Temp;Humidity;BMP_temperature;BMP_pressure;BME280_temperature;BME280_humidity;BME280_pressure;Samples;Min_cycle;Max_cycle;Signal;HPM_P1;HPM_P2
2024/01/24 00:01:52;;;;;;;12.68;2.80;;;;;;;8.39;100.00;97539.31;5066781;28;20775;-71
2024/01/24 00:04:20;;;;;;;15.13;3.35;;;;;;;8.66;100.00;97531.09;5068809;28;20494;-71
2024/01/24 00:06:46;;;;;;;11.90;3.35;;;;;;;8.64;100.00;97530.38;5071681;28;20056;-70
2024/01/24 00:09:13;;;;;;;13.63;2.55;;;;;;;8.69;100.00;97528.22;5071606;28;20467;-71
2024/01/24 00:11:40;;;;;;;16.20;3.08;;;;;;;8.71;100.00;97532.38;5075186;28;20537;-72
2024/01/24 00:14:07;;;;;;;14.63;3.60;;;;;;;8.61;100.00;97538.47;5071298;28;20482;-71
2024/01/24 00:16:34;;;;;;;16.55;2.75;;;;;;;8.58;100.00;97541.31;5078032;28;20147;-71
2024/01/24 00:19:00;;;;;;;13.38;3.75;;;;;;;8.58;100.00;97552.56;5063356;28;20502;-71
2024/01/24 00:21:27;;;;;;;17.67;3.15;;;;;;;8.53;100.00;97558.16;5069363;28;20059;-71
2024/01/24 00:23:54;;;;;;;17.08;2.80;;;;;;;8.61;100.00;97567.16;5078810;28;20072;-71
2024/01/24 00:26:21;;;;;;;16.48;4.20;;;;;;;8.61;100.00;97564.53;5063572;28;20057;-71
2024/01/24 00:28:48;;;;;;;16.58;3.67;;;;;;;8.53;100.00;97566.00;5067868;28;20045;-71
2024/01/24 00:31:15;;;;;;;23.55;4.50;;;;;;;8.52;100.00;97579.97;5056558;28;20068;-71
2024/01/24 00:33:41;;;;;;;14.98;3.13;;;;;;;8.55;100.00;97558.88;5070079;28;20060;-71
2024/01/24 00:36:08;;;;;;;22.58;4.20;;;;;;;8.41;100.00;97569.53;5065372;28;20045;-71
2024/01/24 00:38:35;;;;;;;17.02;3.05;;;;;;;8.53;100.00;97566.00;5070625;28;20076;-71
2024/01/24 00:41:01;;;;;;;16.98;2.85;;;;;;;8.62;100.00;97571.41;5073583;28;20053;-71
2024/01/24 00:43:28;;;;;;;12.45;2.08;;;;;;;8.51;100.00;97538.38;5078004;28;20055;-71
2024/01/24 00:45:55;;;;;;;12.50;2.55;;;;;;;8.69;100.00;97572.56;5074253;28;20060;-71
2024/01/24 00:48:22;;;;;;;11.43;2.47;;;;;;;8.70;100.00;97559.41;5071830;28;20222;-71
2024/01/24 00:50:49;;;;;;;11.93;2.42;;;;;;;8.62;100.00;97566.19;5078991;28;20508;-71
2024/01/24 00:53:20;;;;;;;13.27;2.72;;;;;;;8.59;100.00;97569.88;5085271;28;20055;-71
2024/01/24 00:55:47;;;;;;;9.65;2.47;;;;;;;8.53;100.00;97566.00;5076403;28;20135;-71
2024/01/24 00:58:14;;;;;;;8.73;2.92;;;;;;;8.61;100.00;97573.19;5075269;28;20044;-71
2024/01/24 01:00:40;;;;;;;12.57;2.30;;;;;;;8.63;100.00;97571.28;5077207;28;20033;-71
2024/01/24 01:03:08;;;;;;;10.15;2.13;;;;;;;8.53;100.00;97575.56;5068844;28;20603;-71
2024/01/24 01:05:37;;;;;;;10.75;2.45;;;;;;;8.76;100.00;97597.19;5067662;28;20048;-71
2024/01/24 01:08:05;;;;;;;12.18;2.60;;;;;;;8.63;100.00;97593.94;5089555;28;20068;-71
2024/01/24 01:10:32;;;;;;;11.00;2.28;;;;;;;8.82;100.00;97607.16;5080533;28;20044;-71
2024/01/24 01:12:58;;;;;;;9.85;3.70;;;;;;;8.73;100.00;97590.47;5076491;28;20048;-71
2024/01/24 01:15:25;;;;;;;12.30;2.42;;;;;;;8.77;100.00;97611.91;5082468;28;20388;-71
2024/01/24 01:17:52;;;;;;;9.43;1.92;;;;;;;8.89;100.00;97589.25;5079431;28;20048;-71
2024/01/24 01:20:19;;;;;;;9.02;2.55;;;;;;;8.91;100.00;97605.59;5071934;28;20072;-71
2024/01/24 01:22:46;;;;;;;10.35;2.10;;;;;;;8.60;100.00;97618.47;5083076;28;20410;-71
2024/01/24 01:25:13;;;;;;;10.15;2.03;;;;;;;8.76;100.00;97643.34;5076372;28;20055;-71
2024/01/24 01:27:40;;;;;;;11.63;4.60;;;;;;;8.60;100.00;97641.13;5079061;28;20291;-71
2024/01/24 01:30:07;;;;;;;11.07;3.35;;;;;;;8.70;100.00;97666.34;5070337;28;20372;-73
2024/01/24 01:32:34;;;;;;;9.25;1.98;;;;;;;8.76;100.00;97664.22;5082609;28;20051;-71
2024/01/24 01:35:01;;;;;;;9.10;1.88;;;;;;;8.71;100.00;97672.38;5073629;28;20093;-71
2024/01/24 01:37:27;;;;;;;9.98;1.73;;;;;;;8.86;100.00;97694.66;5068769;28;20536;-71
2024/01/24 01:39:55;;;;;;;7.05;1.65;;;;;;;8.85;100.00;97706.06;5067637;28;20072;-71
2024/01/24 01:42:21;;;;;;;6.22;1.70;;;;;;;9.04;100.00;97731.50;5076523;28;20105;-71
2024/01/24 01:44:48;;;;;;;8.13;1.85;;;;;;;8.92;100.00;97712.47;5078875;28;20139;-71
2024/01/24 01:47:16;;;;;;;8.38;1.92;;;;;;;8.86;100.00;97686.84;5079453;28;20048;-71
2024/01/24 01:49:44;;;;;;;4.75;1.13;;;;;;;8.96;100.00;97702.59;5069031;28;20044;-71
2024/01/24 01:52:11;;;;;;;11.45;2.08;;;;;;;9.04;100.00;97707.19;5063407;28;20048;-71
2024/01/24 01:54:40;;;;;;;6.38;1.27;;;;;;;9.15;100.00;97695.91;5077223;28;20045;-72
2024/01/24 01:57:10;;;;;;;4.68;1.73;;;;;;;8.99;100.00;97704.13;5072594;28;20048;-71
2024/01/24 01:59:40;;;;;;;4.78;1.35;;;;;;;9.09;100.00;97699.84;5079398;28;20406;-71
2024/01/24 02:02:07;;;;;;;9.70;1.90;;;;;;;9.06;100.00;97687.84;5061708;28;20135;-71
2024/01/24 02:04:34;;;;;;;10.85;2.08;;;;;;;9.02;100.00;97677.78;5075935;28;20052;-71
2024/01/24 02:07:01;;;;;;;9.00;1.80;;;;;;;9.01;100.00;97670.91;5068953;28;20512;-71
2024/01/24 02:09:28;;;;;;;17.88;2.83;;;;;;;9.02;100.00;97669.97;5071825;28;20473;-72
2024/01/24 02:11:55;;;;;;;17.48;2.45;;;;;;;8.82;100.00;97682.81;5082553;28;20512;-71
2024/01/24 02:14:22;;;;;;;10.85;2.33;;;;;;;8.88;100.00;97721.44;5065439;28;20151;-71
2024/01/24 02:16:49;;;;;;;11.63;2.42;;;;;;;8.90;100.00;97727.38;5067912;28;20050;-71
2024/01/24 02:19:16;;;;;;;13.35;2.45;;;;;;;8.89;100.00;97743.19;5075286;28;20059;-71
2024/01/24 02:21:43;;;;;;;12.73;2.80;;;;;;;9.02;100.00;97762.13;5067424;28;20059;-71
2024/01/24 02:24:10;;;;;;;15.40;2.70;;;;;;;9.03;100.00;97787.28;5067004;28;20059;-71
2024/01/24 02:26:38;;;;;;;12.85;2.30;;;;;;;9.04;100.00;97782.88;5055615;28;20102;-72
2024/01/24 02:29:06;;;;;;;9.73;2.33;;;;;;;9.01;100.00;97755.25;5067937;28;20087;-71
2024/01/24 02:31:32;;;;;;;15.43;2.33;;;;;;;9.06;100.00;97760.09;5062152;28;20440;-71
2024/01/24 02:33:59;;;;;;;16.90;2.97;;;;;;;8.79;100.00;97739.63;5068667;28;20056;-71
2024/01/24 02:36:26;;;;;;;14.40;2.17;;;;;;;8.72;100.00;97734.88;5064473;28;20291;-71
2024/01/24 02:38:53;;;;;;;13.13;2.72;;;;;;;8.78;100.00;97717.91;5073053;28;20583;-71
2024/01/24 02:41:24;;;;;;;11.60;2.45;;;;;;;8.80;100.00;97723.00;5059158;28;20503;-71
2024/01/24 02:43:51;;;;;;;10.43;2.00;;;;;;;8.78;100.00;97707.47;5069353;28;20048;-71
2024/01/24 02:46:17;;;;;;;9.02;2.10;;;;;;;8.74;100.00;97729.53;5077203;28;20048;-71
2024/01/24 02:48:44;;;;;;;12.57;3.33;;;;;;;8.69;100.00;97756.00;5077451;28;20512;-71
2024/01/24 02:51:11;;;;;;;11.93;2.72;;;;;;;8.55;100.00;97764.88;5067641;28;20056;-71
2024/01/24 02:53:38;;;;;;;9.00;2.20;;;;;;;8.62;100.00;97770.44;5070484;28;20053;-71
2024/01/24 02:56:05;;;;;;;14.50;2.22;;;;;;;8.59;100.00;97782.88;5067713;28;20051;-71
2024/01/24 02:58:32;;;;;;;8.18;2.05;;;;;;;8.49;100.00;97772.34;5061046;28;20132;-71
2024/01/24 03:00:58;;;;;;;12.75;2.47;;;;;;;8.43;100.00;97801.47;5065056;28;20064;-71
2024/01/24 03:03:25;;;;;;;10.55;3.08;;;;;;;8.47;100.00;97793.31;5073393;28;20053;-71
2024/01/24 03:05:52;;;;;;;8.90;2.28;;;;;;;8.67;100.00;97790.97;5063610;28;20048;-71
2024/01/24 03:08:19;;;;;;;12.18;2.28;;;;;;;8.62;100.00;97806.94;5069867;28;20505;-71
2024/01/24 03:10:45;;;;;;;9.65;2.10;;;;;;;8.49;100.00;97795.81;5068831;28;20052;-71
2024/01/24 03:13:12;;;;;;;14.95;2.42;;;;;;;8.60;100.00;97797.59;5075347;28;20437;-70
2024/01/24 03:15:38;;;;;;;8.93;2.38;;;;;;;8.54;100.00;97809.31;5068280;28;20131;-70
2024/01/24 03:18:06;;;;;;;12.27;2.40;;;;;;;8.62;100.00;97813.94;5056364;28;20072;-70
2024/01/24 03:20:32;;;;;;;9.00;2.00;;;;;;;8.78;100.00;97830.09;5067965;28;20139;-71
2024/01/24 03:22:59;;;;;;;10.18;1.90;;;;;;;8.77;100.00;97827.63;5068663;28;20048;-70
2024/01/24 03:25:29;;;;;;;14.57;2.53;;;;;;;8.77;100.00;97830.22;5069845;28;20052;-71
2024/01/24 03:27:55;;;;;;;9.63;2.17;;;;;;;8.78;100.00;97843.13;5065780;28;20415;-71
2024/01/24 03:30:22;;;;;;;8.32;1.90;;;;;;;8.76;100.00;97868.50;5060439;28;20464;-71
2024/01/24 03:32:49;;;;;;;7.80;2.15;;;;;;;8.78;100.00;97853.56;5068559;28;20052;-71
2024/01/24 03:35:15;;;;;;;9.55;2.05;;;;;;;8.71;100.00;97829.75;5068921;28;20052;-71
2024/01/24 03:37:42;;;;;;;6.95;1.80;;;;;;;8.99;100.00;97860.72;5068547;28;20487;-71
2024/01/24 03:40:09;;;;;;;9.45;2.08;;;;;;;8.92;100.00;97882.06;5069351;28;20135;-71
2024/01/24 03:42:36;;;;;;;6.35;1.88;;;;;;;8.91;100.00;97887.41;5070943;28;20059;-71
2024/01/24 03:45:03;;;;;;;4.80;1.30;;;;;;;9.11;100.00;97894.50;5077939;28;20060;-70
2024/01/24 03:47:30;;;;;;;9.85;2.25;;;;;;;8.78;100.00;97915.34;5067919;28;20151;-71
2024/01/24 03:49:57;;;;;;;9.32;1.70;;;;;;;8.88;100.00;97904.09;5068853;28;20442;-71
2024/01/24 03:52:24;;;;;;;8.85;2.25;;;;;;;8.76;100.00;97896.38;5075229;28;20064;-71
2024/01/24 03:54:50;;;;;;;8.20;2.20;;;;;;;8.78;100.00;97897.09;5069494;28;20049;-71
2024/01/24 03:57:17;;;;;;;8.80;1.98;;;;;;;8.75;100.00;97908.59;5073973;28;20051;-71
2024/01/24 03:59:44;;;;;;;6.53;1.52;;;;;;;8.75;100.00;97916.44;5068448;28;20064;-71
2024/01/24 04:02:10;;;;;;;5.97;1.50;;;;;;;8.81;100.00;97929.00;5077808;28;20485;-71
2024/01/24 04:04:38;;;;;;;7.05;1.70;;;;;;;8.79;100.00;97954.38;5068095;28;20107;-71
2024/01/24 04:07:05;;;;;;;12.23;2.08;;;;;;;8.66;100.00;97966.69;5069427;28;20044;-71
2024/01/24 04:09:32;;;;;;;7.80;1.75;;;;;;;8.71;100.00;97968.00;5079173;28;20187;-73
2024/01/24 04:11:59;;;;;;;8.98;1.60;;;;;;;8.70;100.00;97974.16;5064963;28;20049;-71
2024/01/24 04:14:25;;;;;;;5.10;1.40;;;;;;;8.61;100.00;97974.00;5074325;28;20649;-70
2024/01/24 04:16:52;;;;;;;9.85;2.00;;;;;;;8.64;100.00;97981.59;5080426;28;20340;-72
2024/01/24 04:19:19;;;;;;;5.60;1.60;;;;;;;8.54;100.00;97999.69;5071501;28;20496;-71
2024/01/24 04:21:46;;;;;;;4.82;1.20;;;;;;;8.60;100.00;97990.59;5075806;28;20136;-71
2024/01/24 04:24:12;;;;;;;10.82;1.75;;;;;;;8.52;100.00;98006.81;5077069;28;20051;-71
2024/01/24 04:26:39;;;;;;;10.05;2.33;;;;;;;8.46;100.00;98018.50;5074204;28;20060;-71
2024/01/24 04:29:06;;;;;;;10.45;2.35;;;;;;;8.47;100.00;98058.47;5070168;28;20049;-71
2024/01/24 04:31:38;;;;;;;8.32;1.73;;;;;;;8.70;100.00;98041.97;5057986;28;20049;-71
2024/01/24 04:34:05;;;;;;;8.63;2.03;;;;;;;8.66;100.00;98069.22;5064103;28;20423;-70
2024/01/24 04:36:32;;;;;;;7.07;1.52;;;;;;;8.66;100.00;98077.06;5053158;28;20191;-71
2024/01/24 04:38:59;;;;;;;6.43;1.77;;;;;;;8.58;100.00;98074.16;5053614;28;20080;-72
2024/01/24 04:41:26;;;;;;;9.45;2.28;;;;;;;8.59;100.00;98075.84;5068313;28;20048;-71
2024/01/24 04:43:53;;;;;;;6.50;1.63;;;;;;;8.68;100.00;98122.13;5062133;28;20052;-71
2024/01/24 04:46:20;;;;;;;7.22;1.67;;;;;;;8.69;100.00;98107.28;5057091;28;20419;-72
2024/01/24 04:48:46;;;;;;;7.72;1.70;;;;;;;8.63;100.00;98102.53;5068355;28;20056;-71
2024/01/24 04:51:13;;;;;;;5.25;1.55;;;;;;;8.78;100.00;98114.44;5070382;28;20133;-71
2024/01/24 04:53:40;;;;;;;6.00;1.60;;;;;;;8.59;100.00;98140.19;5074287;28;20053;-71
2024/01/24 04:56:07;;;;;;;9.48;2.55;;;;;;;8.64;100.00;98133.72;5072128;28;20045;-71
2024/01/24 04:58:34;;;;;;;7.68;1.70;;;;;;;8.79;100.00;98152.66;5063875;28;20059;-72
2024/01/24 05:01:03;;;;;;;7.90;1.48;;;;;;;8.84;100.00;98171.44;5051441;28;20056;-71
2024/01/24 05:03:30;;;;;;;5.45;1.38;;;;;;;8.67;100.00;98190.88;5054732;28;20554;-71
2024/01/24 05:05:56;;;;;;;5.55;1.30;;;;;;;8.86;100.00;98195.63;5077339;28;20490;-70
2024/01/24 05:08:35;;;;;;;7.95;1.58;;;;;;;8.88;100.00;98188.53;5073384;28;20044;-71
2024/01/24 05:11:02;;;;;;;6.35;1.48;;;;;;;8.81;100.00;98170.81;5064010;28;20052;-71
2024/01/24 05:13:29;;;;;;;7.13;1.40;;;;;;;8.78;100.00;98213.59;5074837;28;20814;-71
2024/01/24 05:15:56;;;;;;;5.78;2.15;;;;;;;8.79;100.00;98217.88;5061401;28;20051;-71
2024/01/24 05:18:22;;;;;;;6.82;1.60;;;;;;;8.99;100.00;98237.34;5086019;28;20097;-71
2024/01/24 05:20:49;;;;;;;8.77;1.50;;;;;;;8.93;100.00;98238.63;5064620;28;20048;-71
2024/01/24 05:23:16;;;;;;;6.07;1.27;;;;;;;9.06;100.00;98259.44;5058268;28;20091;-71
2024/01/24 05:25:43;;;;;;;5.03;1.48;;;;;;;8.91;100.00;98253.56;5073644;28;20061;-71
2024/01/24 05:28:11;;;;;;;6.60;1.50;;;;;;;9.08;100.00;98281.09;5081426;28;20067;-71
2024/01/24 05:30:38;;;;;;;6.93;1.65;;;;;;;9.02;100.00;98286.72;5055612;28;20085;-73
2024/01/24 05:33:05;;;;;;;9.85;1.73;;;;;;;8.81;100.00;98304.72;5069007;28;20045;-71
2024/01/24 05:35:32;;;;;;;6.07;2.58;;;;;;;8.80;100.00;98310.03;5071317;28;20052;-71
2024/01/24 05:37:59;;;;;;;5.68;1.50;;;;;;;8.94;100.00;98322.94;5072412;28;20056;-71
2024/01/24 05:40:26;;;;;;;8.70;1.75;;;;;;;8.73;100.00;98336.56;5060713;28;20438;-71
2024/01/24 05:42:53;;;;;;;8.55;1.65;;;;;;;8.86;100.00;98333.09;5093735;27;20053;-71
2024/01/24 05:45:20;;;;;;;8.10;1.60;;;;;;;9.02;100.00;98354.59;5076058;28;20063;-71
2024/01/24 05:47:47;;;;;;;6.82;1.70;;;;;;;9.09;100.00;98361.06;5072132;28;20496;-71
2024/01/24 05:50:14;;;;;;;4.88;1.60;;;;;;;9.17;100.00;98370.13;5061516;28;20076;-71
2024/01/24 05:52:42;;;;;;;7.00;1.52;;;;;;;8.91;100.00;98383.22;5080376;28;20043;-71
2024/01/24 05:55:11;;;;;;;10.23;1.98;;;;;;;8.80;100.00;98396.13;5066220;28;20048;-71
2024/01/24 05:57:40;;;;;;;7.50;1.90;;;;;;;8.90;100.00;98395.41;5078890;28;20044;-71
2024/01/24 06:00:09;;;;;;;12.70;2.10;;;;;;;8.89;100.00;98414.63;5067062;28;20041;-71
2024/01/24 06:02:37;;;;;;;7.85;1.77;;;;;;;8.97;100.00;98427.16;5074158;28;20036;-71
2024/01/24 06:05:04;;;;;;;6.25;1.60;;;;;;;8.96;100.00;98419.41;5061125;28;20055;-71
2024/01/24 06:07:31;;;;;;;8.52;1.67;;;;;;;8.69;100.00;98421.19;5076829;28;20048;-71
2024/01/24 06:09:58;;;;;;;9.05;1.83;;;;;;;8.71;100.00;98445.41;5072262;28;20053;-71
2024/01/24 06:12:25;;;;;;;6.25;1.88;;;;;;;8.76;100.00;98442.47;5071580;28;20056;-71
2024/01/24 06:14:54;;;;;;;8.93;1.58;;;;;;;8.88;100.00;98467.75;5071991;28;20498;-71
2024/01/24 06:17:22;;;;;;;6.05;1.42;;;;;;;8.88;100.00;98491.22;5060266;28;20082;-71
2024/01/24 06:19:51;;;;;;;8.35;1.65;;;;;;;8.82;100.00;98496.88;5085341;28;20055;-71
2024/01/24 06:22:17;;;;;;;9.30;1.88;;;;;;;8.90;100.00;98491.97;5079172;28;20090;-71
2024/01/24 06:24:44;;;;;;;6.75;1.70;;;;;;;8.71;100.00;98517.59;5071542;28;20455;-71
2024/01/24 06:27:11;;;;;;;8.07;2.00;;;;;;;8.82;100.00;98522.09;5072043;28;20048;-71
2024/01/24 06:29:38;;;;;;;10.52;1.83;;;;;;;8.83;100.00;98513.34;5065776;28;20071;-70
2024/01/24 06:32:25;;;;;;;7.00;1.55;;;;;;;8.86;100.00;98523.59;5072512;28;20068;-71
2024/01/24 06:34:51;;;;;;;7.70;2.60;;;;;;;8.73;100.00;98550.50;5061746;28;20479;-70
2024/01/24 06:37:18;;;;;;;8.95;2.10;;;;;;;8.57;100.00;98557.66;5059297;28;20052;-70
2024/01/24 06:39:45;;;;;;;9.18;1.98;;;;;;;8.90;100.00;98551.16;5058577;28;20447;-70
2024/01/24 06:42:11;;;;;;;9.07;2.53;;;;;;;8.72;100.00;98564.47;5062343;28;20059;-70
2024/01/24 06:44:38;;;;;;;9.70;1.80;;;;;;;8.75;100.00;98566.06;5062619;28;20409;-70
2024/01/24 06:47:05;;;;;;;17.35;3.22;;;;;;;8.80;100.00;98600.50;5060282;28;20045;-70
2024/01/24 06:49:31;;;;;;;11.90;2.38;;;;;;;8.98;100.00;98592.41;5053018;28;20049;-70
2024/01/24 06:51:58;;;;;;;16.33;2.80;;;;;;;8.97;100.00;98642.94;5070719;28;20048;-72
2024/01/24 06:54:25;;;;;;;15.63;2.92;;;;;;;8.90;100.00;98652.94;5059836;28;20051;-70
2024/01/24 06:56:52;;;;;;;10.48;2.47;;;;;;;9.07;100.00;98676.19;5063316;28;20045;-70
2024/01/24 06:59:19;;;;;;;15.85;2.95;;;;;;;8.87;100.00;98689.66;5071920;28;20082;-70
2024/01/24 07:01:45;;;;;;;13.15;3.05;;;;;;;8.99;100.00;98703.72;5068321;28;20383;-71
2024/01/24 07:04:12;;;;;;;12.48;2.65;;;;;;;9.04;100.00;98712.94;5065771;28;20402;-71
2024/01/24 07:06:39;;;;;;;13.50;2.53;;;;;;;9.05;100.00;98719.84;5052222;28;20049;-70
2024/01/24 07:09:06;;;;;;;9.45;2.63;;;;;;;9.01;100.00;98726.19;5067299;28;20435;-71
2024/01/24 07:11:33;;;;;;;9.82;2.40;;;;;;;9.17;100.00;98773.06;5062781;28;20049;-71
2024/01/24 07:13:59;;;;;;;13.50;2.80;;;;;;;9.12;100.00;98778.56;5070183;28;20066;-71
2024/01/24 07:16:26;;;;;;;17.38;2.72;;;;;;;8.99;100.00;98782.03;5062799;28;20467;-71
2024/01/24 07:18:53;;;;;;;13.50;3.15;;;;;;;9.09;100.00;98754.41;5062396;28;20048;-71
2024/01/24 07:21:20;;;;;;;11.27;2.25;;;;;;;8.95;100.00;98810.09;5057847;28;20522;-71
2024/01/24 07:23:46;;;;;;;11.15;2.13;;;;;;;9.06;100.00;98833.75;5059431;28;20493;-71
2024/01/24 07:26:13;;;;;;;12.98;2.17;;;;;;;9.03;100.00;98836.56;5051959;28;20052;-71
2024/01/24 07:28:40;;;;;;;6.82;1.75;;;;;;;9.13;100.00;98869.00;5063039;28;20328;-71
2024/01/24 07:31:06;;;;;;;14.23;2.22;;;;;;;9.02;100.00;98868.81;5069415;28;20041;-71
2024/01/24 07:33:33;;;;;;;11.98;2.20;;;;;;;8.95;100.00;98877.13;5048620;28;20048;-71
2024/01/24 07:36:00;;;;;;;9.82;1.88;;;;;;;9.16;100.00;98921.97;5079102;28;20045;-71
2024/01/24 07:38:26;;;;;;;11.20;2.50;;;;;;;9.00;100.00;98909.00;5058764;28;20041;-71
2024/01/24 07:40:53;;;;;;;8.45;1.92;;;;;;;8.71;100.00;98919.41;5053635;28;20048;-71
2024/01/24 07:43:21;;;;;;;10.23;2.30;;;;;;;9.08;100.00;98941.56;5064956;28;20328;-71
2024/01/24 07:45:48;;;;;;;8.63;2.42;;;;;;;8.82;100.00;98963.97;5064343;28;20128;-71
2024/01/24 07:48:15;;;;;;;11.25;2.38;;;;;;;9.07;100.00;98980.81;5048113;28;20041;-71
2024/01/24 07:50:43;;;;;;;10.20;2.15;;;;;;;9.13;100.00;98970.81;5053859;28;20486;-71
2024/01/24 07:53:09;;;;;;;13.40;2.60;;;;;;;8.88;100.00;98978.44;5051647;28;20613;-71
2024/01/24 07:55:36;;;;;;;8.35;1.88;;;;;;;9.12;100.00;99003.09;5052510;28;20052;-71
2024/01/24 07:58:21;;;;;;;7.30;1.88;;;;;;;9.11;100.00;99022.28;5066569;28;20061;-71
2024/01/24 08:00:48;;;;;;;15.85;2.25;;;;;;;9.14;100.00;99029.13;5066037;28;20493;-71
2024/01/24 08:03:16;;;;;;;10.70;2.28;;;;;;;9.04;100.00;99036.63;5058275;28;20110;-71
2024/01/24 08:05:44;;;;;;;11.73;2.72;;;;;;;8.90;100.00;99045.25;5066518;28;20082;-71
2024/01/24 08:08:11;;;;;;;7.93;1.85;;;;;;;9.30;100.00;99060.41;5055111;28;20055;-71
2024/01/24 08:10:37;;;;;;;11.98;2.40;;;;;;;8.99;100.00;99088.28;5064019;28;20071;-72
2024/01/24 08:13:06;;;;;;;11.30;2.05;;;;;;;9.20;100.00;99120.13;5071433;28;20044;-72
2024/01/24 08:15:33;;;;;;;10.57;2.25;;;;;;;9.02;100.00;99105.53;5081512;28;20053;-71
2024/01/24 08:18:00;;;;;;;9.73;1.98;;;;;;;8.98;100.00;99102.28;5064271;28;20650;-72
2024/01/24 08:20:27;;;;;;;9.60;2.60;;;;;;;8.95;100.00;99159.88;5062200;28;20064;-72
2024/01/24 08:22:53;;;;;;;11.68;2.35;;;;;;;9.10;100.00;99160.75;5050380;28;20037;-71
2024/01/24 08:25:20;;;;;;;11.20;2.45;;;;;;;9.00;100.00;99172.66;5066547;28;20052;-71
2024/01/24 08:27:47;;;;;;;10.73;2.50;;;;;;;8.99;100.00;99195.31;5065777;28;20110;-71
2024/01/24 08:30:13;;;;;;;15.55;2.40;;;;;;;8.99;100.00;99210.13;5060166;28;20119;-71
2024/01/24 08:32:42;;;;;;;10.25;2.20;;;;;;;9.13;100.00;99221.47;5065517;28;20045;-71
2024/01/24 08:35:09;;;;;;;9.32;2.20;;;;;;;8.97;100.00;99238.09;5061974;28;20467;-71
2024/01/24 08:37:36;;;;;;;12.43;2.45;;;;;;;9.03;100.00;99266.47;5068955;28;20067;-71
2024/01/24 08:40:04;;;;;;;12.05;2.10;;;;;;;9.19;100.00;99274.28;5052378;28;20083;-71
2024/01/24 08:42:31;;;;;;;11.55;2.55;;;;;;;9.07;100.00;99281.06;5063520;28;20051;-72
2024/01/24 08:44:57;;;;;;;9.02;2.20;;;;;;;8.97;100.00;99279.88;5060458;28;20152;-71
2024/01/24 08:47:24;;;;;;;10.20;2.25;;;;;;;8.90;100.00;99280.19;5057128;28;20482;-72
2024/01/24 08:49:53;;;;;;;10.80;2.22;;;;;;;8.93;100.00;99295.69;5063374;28;20053;-71
2024/01/24 08:52:20;;;;;;;11.00;3.08;;;;;;;9.01;100.00;99323.16;5067079;28;20414;-73
2024/01/24 08:54:48;;;;;;;11.55;2.50;;;;;;;9.00;100.00;99311.03;5063550;28;20103;-71
2024/01/24 08:57:15;;;;;;;8.95;2.45;;;;;;;9.22;100.00;99348.09;5066509;28;20102;-72
2024/01/24 08:59:42;;;;;;;13.98;2.47;;;;;;;9.15;100.00;99345.91;5072171;28;20045;-71
2024/01/24 09:02:09;;;;;;;17.10;2.90;;;;;;;9.25;100.00;99345.31;5071729;28;20505;-72
2024/01/24 09:04:36;;;;;;;16.65;2.72;;;;;;;9.42;100.00;99352.25;5072752;28;20426;-71
2024/01/24 09:07:04;;;;;;;14.05;2.67;;;;;;;9.55;100.00;99354.19;5058992;28;20080;-71
2024/01/24 09:09:33;;;;;;;12.07;3.28;;;;;;;9.22;100.00;99382.03;5071030;28;20068;-72
2024/01/24 09:12:00;;;;;;;12.15;3.03;;;;;;;9.44;100.00;99404.44;5073022;28;20044;-71
2024/01/24 09:14:27;;;;;;;13.52;2.72;;;;;;;9.57;100.00;99386.31;5080723;28;20113;-71
2024/01/24 09:16:54;;;;;;;21.75;3.90;;;;;;;9.56;100.00;99415.97;5075653;28;20048;-71
2024/01/24 09:19:22;;;;;;;17.15;2.83;;;;;;;9.29;100.00;99434.81;5071895;28;20060;-71
2024/01/24 09:21:50;;;;;;;15.35;3.80;;;;;;;9.40;100.00;99458.59;5057433;28;20079;-71
2024/01/24 09:24:17;;;;;;;20.92;4.22;;;;;;;9.39;100.00;99451.69;5072775;28;20051;-71
2024/01/24 09:26:44;;;;;;;12.73;2.72;;;;;;;9.51;100.00;99484.16;5072429;28;20047;-71
2024/01/24 09:29:12;;;;;;;8.20;2.20;;;;;;;9.37;100.00;99504.94;5065707;28;20047;-71
2024/01/24 09:31:45;;;;;;;14.77;2.85;;;;;;;9.32;100.00;99494.72;5080036;28;20072;-71
2024/01/24 09:34:12;;;;;;;20.20;3.47;;;;;;;9.37;100.00;99531.91;5071696;28;20406;-72
2024/01/24 09:36:39;;;;;;;21.08;3.03;;;;;;;9.18;100.00;99513.72;5071471;28;20065;-72
2024/01/24 09:39:07;;;;;;;14.88;3.40;;;;;;;9.50;100.00;99561.69;5059998;28;20106;-72
2024/01/24 09:41:41;;;;;;;15.05;3.38;;;;;;;9.52;100.00;99569.44;5078609;28;20079;-72
2024/01/24 09:44:09;;;;;;;12.52;2.45;;;;;;;9.50;100.00;99579.13;5071692;28;20049;-72
2024/01/24 09:46:36;;;;;;;13.48;2.47;;;;;;;9.74;100.00;99599.69;5072062;28;20101;-72
2024/01/24 09:49:06;;;;;;;12.23;3.33;;;;;;;9.49;100.00;99608.78;5062250;28;20478;-72
2024/01/24 09:51:34;;;;;;;15.20;3.08;;;;;;;9.63;100.00;99614.19;5071740;28;20058;-71
2024/01/24 09:54:07;;;;;;;12.43;2.67;;;;;;;9.48;100.00;99623.63;5072200;28;20641;-72
2024/01/24 09:56:36;;;;;;;13.95;2.38;;;;;;;9.50;100.00;99613.94;5069031;28;20328;-71
2024/01/24 09:59:05;;;;;;;14.95;3.42;;;;;;;9.48;100.00;99634.09;5065280;28;20048;-72
2024/01/24 10:01:34;;;;;;;11.45;2.20;;;;;;;9.44;100.00;99629.09;5072842;28;20458;-72
2024/01/24 10:04:02;;;;;;;7.80;2.13;;;;;;;9.74;100.00;99651.97;5059547;28;20048;-71
2024/01/24 10:06:29;;;;;;;15.07;2.75;;;;;;;9.58;100.00;99659.75;5066555;28;20066;-71
2024/01/24 10:08:57;;;;;;;9.57;2.22;;;;;;;9.64;100.00;99682.97;5071039;28;20136;-71
2024/01/24 10:11:25;;;;;;;12.98;2.95;;;;;;;9.89;100.00;99678.16;5070858;28;20521;-72
2024/01/24 10:13:57;;;;;;;11.73;2.28;;;;;;;9.87;100.00;99684.41;5073291;28;20130;-72
2024/01/24 10:16:25;;;;;;;17.52;3.00;;;;;;;9.78;100.00;99704.03;5078651;28;20052;-72
2024/01/24 10:18:56;;;;;;;14.02;2.90;;;;;;;9.56;100.00;99680.75;5070108;28;20064;-72
2024/01/24 10:21:25;;;;;;;25.52;4.60;;;;;;;9.59;100.00;99709.31;5070618;28;20060;-71
2024/01/24 10:23:59;;;;;;;14.50;3.45;;;;;;;9.80;100.00;99719.63;5071612;28;20048;-71
2024/01/24 10:26:26;;;;;;;17.25;3.63;;;;;;;10.03;100.00;99739.38;5059752;28;20053;-72
2024/01/24 10:28:53;;;;;;;19.13;3.25;;;;;;;9.44;100.00;99712.72;5068830;28;20052;-72
2024/01/24 10:31:23;;;;;;;18.08;3.80;;;;;;;9.76;100.00;99766.00;5071472;28;20490;-71
2024/01/24 10:33:55;;;;;;;18.38;3.85;;;;;;;9.64;100.00;99769.22;5056172;28;20081;-71
2024/01/24 10:36:23;;;;;;;15.00;4.15;;;;;;;9.85;100.00;99762.09;5060952;28;20057;-72
2024/01/24 10:39:00;;;;;;;20.60;3.63;;;;;;;9.98;100.00;99799.75;5065744;28;20098;-72
2024/01/24 10:41:30;;;;;;;15.27;4.30;;;;;;;9.72;100.00;99814.13;5073611;28;20079;-71
2024/01/24 10:44:04;;;;;;;17.50;3.35;;;;;;;9.94;100.00;99828.75;5059519;28;20119;-72
2024/01/24 10:46:33;;;;;;;16.85;3.65;;;;;;;9.99;100.00;99832.84;5062341;28;20048;-71
2024/01/24 10:49:01;;;;;;;14.10;3.13;;;;;;;10.13;100.00;99846.97;5063908;28;20122;-72
2024/01/24 10:51:30;;;;;;;31.63;4.55;;;;;;;10.05;100.00;99870.91;5063352;28;20087;-72
2024/01/24 10:53:57;;;;;;;17.60;3.35;;;;;;;10.29;100.00;99886.31;5069367;28;20767;-72
2024/01/24 10:56:24;;;;;;;16.48;3.00;;;;;;;10.13;100.00;99908.00;5069208;28;20101;-71
2024/01/24 10:58:51;;;;;;;14.98;3.63;;;;;;;10.20;100.00;99912.03;5059398;28;20060;-71
2024/01/24 11:01:18;;;;;;;23.65;3.83;;;;;;;10.00;100.00;99912.97;5056086;28;20049;-72
2024/01/24 11:03:49;;;;;;;17.00;3.67;;;;;;;10.37;100.00;99900.72;5063798;28;20077;-71
2024/01/24 11:06:17;;;;;;;18.08;4.95;;;;;;;10.39;100.00;99919.84;5066221;28;20052;-72
2024/01/24 11:09:12;;;;;;;13.50;3.85;;;;;;;10.26;100.00;99926.56;5067315;28;20044;-72
2024/01/24 11:11:42;;;;;;;12.65;3.90;;;;;;;10.31;100.00;99944.66;5070015;28;20040;-71
2024/01/24 11:14:09;;;;;;;17.08;3.15;;;;;;;10.27;100.00;99925.66;5069322;28;20040;-72
2024/01/24 11:16:39;;;;;;;12.63;3.25;;;;;;;10.36;100.00;99940.09;5055606;28;20471;-71
2024/01/24 11:19:20;;;;;;;18.40;3.80;;;;;;;10.31;100.00;99937.69;5055926;28;20131;-71
2024/01/24 11:21:48;;;;;;;14.10;4.00;;;;;;;10.21;100.00;99952.09;5070137;28;20135;-72
2024/01/24 11:24:45;;;;;;;16.52;3.42;;;;;;;10.37;100.00;99955.69;5070548;28;20898;-72
2024/01/24 11:27:35;;;;;;;18.08;3.38;;;;;;;10.31;100.00;99961.22;5053950;28;20059;-72
2024/01/24 11:30:22;;;;;;;17.90;3.50;;;;;;;10.49;100.00;99998.72;5079142;28;20054;-71
2024/01/24 11:32:55;;;;;;;15.32;3.70;;;;;;;10.55;100.00;99993.22;5050357;28;20487;-71